Terminal Aerodrome Forecast
Issued by NWS Wilmington, OH

Home | Current Version | Previous Version | Text Only | Print | Product List | Glossary On
Versions: 1 2 3 4 5 6 7 8 9 10 11 12 13 14 15 16 17 18 19 20 21 22 23 24 25
000
FTUS41 KILN 140000 AAA
TAFCVG
TAF AMD
KCVG 140058Z 1401/1506 22006KT P6SM VCTS FEW035 BKN090CB
      TEMPO 1401/1402 5SM -TSRA BR OVC035CB
     FM140400 26005KT P6SM VCSH BKN035
     FM140800 25004KT 5SM BR OVC025
     FM141300 24010KT P6SM VCSH SCT035 BKN100
     FM142000 25008KT P6SM VCTS BKN040CB=

USA.gov is the U.S. government's official web portal to all federal, state and local government web resources and services.